SBMQ/MCP METAR and TAF weather

Enter ICAO airport designator
Station Type Date Time Source
SBMQ METAR 2018/12/17 02:00 UTC NOAA

SBMQ 170200Z 34005KT 9999 SCT006 BKN080 25/25 Q1015


Station Type Date Time Source
SBMQ Decoded METAR 2018/12/17 02:00 UTC NOAA

Macapa, Brazil (SBMQ) 00-02N 050-03W
Dec 16, 2018 - 09:00 PM EST / 2018.12.17 0200 UTC
Wind: from the NNW (340 degrees) at 6 MPH (5 KT):0
Visibility: greater than 7 mile(s):0
Sky conditions: mostly cloudy
Temperature: 77 F (25 C)
Dew Point: 77 F (25 C)
Relative Humidity: 100%
Pressure (altimeter): 29.97 in. Hg (1015 hPa)
ob: SBMQ 170200Z 34005KT 9999 SCT006 BKN080 25/25 Q1015
cycle: 2

Station Type Date Time Source
SBMQ TAF 2018/12/17 00:27 UTC NOAA

TAF SBMQ 162200Z 1700/1724 30002KT 9999 SCT017 TN24/1704Z TX28/1718Z
BECMG 1701/1703 33005KT
BECMG 1705/1707 27003KT SCT006
BECMG 1709/1711 33005KT
BECMG 1713/1715 5000 RA SCT005 BKN012
BECMG 1717/1719 36007KT 9999 SCT018
BECMG 1721/1723 28002KT
RMK PDY


Example: see airport list